Latest Weather Observations for Pound Creek

IDV60801

Issued at 6:42 pm EDT Sunday 28 February 2021 (issued every 10 minutes, with the page automatically refreshed every 10 minutes)

About weather observations | Map of weather stations | Latest weather observations for VIC | Other Formats
Station Details ID: 085099 Name: POUND CREEK Lat: -38.63 Lon: 145.81 Height: 3.0 m
Data from the previous 72 hours. | See also: Recent months at Pound Creek
Date/Time
EDT
Temp
°C
App
Temp
°C
Dew
Point
°C
Rel
Hum
%
Delta-T
°C
Wind Press
QNH
hPa
Press
MSL
hPa
Rain since
9am
mm
Dir  Spd
km/h
Gust
km/h
Spd
kts
Gust
kts
28/06:30pm 22.1 21.7 15.2 65 4.1 SSW 11 13 6 7 1009.7 1009.7 0.0
28/06:00pm 22.7 21.3 12.3 52 5.9 S 11 15 6 8 1009.7 1009.7 0.0
28/05:30pm 23.0 21.3 11.1 47 6.6 S 11 15 6 8 1009.9 1009.9 0.0
28/05:00pm 22.9 20.9 12.8 53 5.8 S 15 17 8 9 1010.0 1010.0 0.0
28/04:30pm 22.6 21.4 12.8 54 5.6 S 11 15 6 8 1010.4 1010.4 0.0
28/04:00pm 22.1 20.8 12.4 54 5.5 S 11 15 6 8 1010.9 1010.9 0.0
28/03:30pm 22.5 20.8 12.4 52 5.7 S 13 20 7 11 1011.0 1011.0 0.0
28/03:00pm 22.1 20.4 12.4 54 5.5 SSW 13 17 7 9 1011.4 1011.4 0.0
28/02:30pm 22.4 20.7 12.6 54 5.6 SSW 13 17 7 9 1011.8 1011.8 0.0
28/02:00pm 21.4 20.0 13.3 60 4.6 SSW 13 19 7 10 1012.1 1012.1 0.0
28/01:30pm 22.0 20.5 14.1 61 4.6 SSW 15 19 8 10 1012.4 1012.4 0.0
28/01:00pm 21.1 19.3 13.3 61 4.5 SW 15 20 8 11 1012.7 1012.7 0.0
28/12:30pm 20.6 18.8 13.3 63 4.2 SSW 15 19 8 10 1013.0 1013.0 0.0
28/12:00pm 20.2 19.0 14.1 68 3.5 SSW 13 17 7 9 1013.2 1013.2 0.0
28/11:30am 20.2 19.4 14.1 68 3.5 SSW 11 15 6 8 1013.3 1013.3 0.0
28/11:00am 19.5 19.5 14.1 71 3.1 SSW 7 13 4 7 1013.3 1013.3 0.0
28/10:30am 18.8 19.4 14.3 75 2.6 WSW 4 11 2 6 1013.4 1013.4 0.0
28/10:00am 18.1 19.3 14.8 81 1.9 WNW 2 4 1 2 1013.7 1013.7 0.0
28/09:30am 16.4 17.6 14.9 91 0.9 N 2 6 1 3 1013.5 1013.5 0.0
28/09:00am 14.8 15.6 14.8 100 0.0 ESE 4 6 2 3 1013.2 1013.2 0.0
28/08:30am 12.3 13.0 12.3 100 0.0 CALM 0 0 0 0 1013.3 1013.3 0.0
28/08:00am 9.9 9.2 9.9 100 0.0 NNW 4 6 2 3 1013.4 1013.4 0.0
28/07:30am 7.9 7.4 7.9 100 0.0 CALM 0 0 0 0 1013.0 1013.0 0.0
28/07:00am 8.3 7.5 8.3 100 0.0 NE 2 2 1 1 1012.5 1012.5 0.0
28/06:30am 9.3 8.8 9.3 100 0.0 NNE 2 4 1 2 1012.7 1012.7 0.0
28/06:00am 10.1 10.2 10.1 100 0.0 CALM 0 2 0 1 1012.8 1012.8 0.0
28/05:30am 10.8 10.3 10.8 100 0.0 N 4 7 2 4 1012.8 1012.8 0.0
28/05:00am 10.6 10.8 10.6 100 0.0 CALM 0 0 0 0 1012.7 1012.7 0.0
28/04:30am 11.0 10.2 11.0 100 0.0 N 6 6 3 3 1012.7 1012.7 0.0
28/04:00am 10.7 10.6 10.7 100 0.0 N 2 2 1 1 1012.8 1012.8 0.0
28/03:30am 10.8 10.3 10.8 100 0.0 ESE 4 6 2 3 1012.5 1012.5 0.0
28/03:00am 10.9 10.8 10.9 100 0.0 ESE 2 4 1 2 1012.6 1012.6 0.0
28/02:30am 11.2 11.6 11.2 100 0.0 CALM 0 2 0 1 1013.1 1013.1 0.0
28/02:00am 11.3 11.7 11.3 100 0.0 CALM 0 0 0 0 1013.2 1013.2 0.0
28/01:30am 11.6 11.3 11.6 100 0.0 NNW 4 6 2 3 1013.3 1013.3 0.0
28/01:00am 11.1 10.3 10.9 99 0.1 WSW 6 6 3 3 1013.4 1013.4 0.0
28/12:30am 12.5 11.9 12.3 99 0.1 NNE 7 11 4 6 1013.3 1013.3 0.0
28/12:00am 11.9 10.8 11.9 100 0.0 N 9 13 5 7 1013.4 1013.4 0.0
 
Date/Time
EDT
Temp
°C
App
Temp
°C
Dew
Point
°C
Rel
Hum
%
Delta-T
°C
Wind Press
QNH
hPa
Press
MSL
hPa
Rain since
9am
mm
Dir  Spd
km/h
Gust
km/h
Spd
kts
Gust
kts
27/11:30pm 11.7 11.1 11.7 100 0.0 N 6 9 3 5 1013.5 1013.5 0.0
27/11:00pm 11.1 11.4 10.8 98 0.2 CALM 0 0 0 0 1013.5 1013.5 0.0
27/10:30pm 12.0 11.3 11.5 97 0.3 N 6 7 3 4 1013.5 1013.5 0.0
27/10:00pm 12.3 11.7 11.8 97 0.3 N 6 7 3 4 1013.7 1013.7 0.0
27/09:30pm 13.0 13.7 12.2 95 0.4 CALM 0 0 0 0 1013.5 1013.5 0.0
27/09:00pm 13.8 14.6 12.7 93 0.6 CALM 0 0 0 0 1013.4 1013.4 0.0
27/08:30pm 14.8 15.3 12.7 87 1.2 SSE 2 4 1 2 1013.1 1013.1 0.0
27/08:00pm 16.4 16.0 12.4 77 2.2 SW 6 6 3 3 1013.0 1013.0 0.0
27/07:30pm 17.5 16.6 12.6 73 2.7 SW 9 11 5 6 1012.7 1012.7 0.0
27/07:00pm 17.6 16.0 12.7 73 2.7 SW 13 15 7 8 1012.4 1012.4 0.0
27/06:30pm 18.0 16.8 12.7 71 3.0 SW 11 15 6 8 1012.2 1012.2 0.0
27/06:00pm 19.1 19.1 11.2 60 4.3 NNW 2 6 1 3 1012.1 1012.1 0.0
27/05:30pm 19.4 19.1 11.4 60 4.4 NE 4 7 2 4 1012.0 1012.0 0.0
27/05:00pm 19.2 18.2 11.0 59 4.5 NNE 7 13 4 7 1012.0 1012.0 0.0
27/04:30pm 19.0 17.9 10.8 59 4.4 NNE 7 11 4 6 1012.2 1012.2 0.0
27/04:00pm 19.1 17.3 10.9 59 4.5 NNE 11 17 6 9 1012.3 1012.3 0.0
27/03:30pm 18.9 17.1 11.0 60 4.3 NNE 11 17 6 9 1012.3 1012.3 0.0
27/03:00pm 18.8 16.5 10.6 59 4.4 NNE 13 19 7 10 1012.5 1012.5 0.0
27/02:30pm 19.2 17.1 11.3 60 4.3 NNE 13 20 7 11 1012.7 1012.7 0.0
27/02:00pm 18.8 16.7 11.1 61 4.2 NE 13 22 7 12 1012.9 1012.9 0.0
27/01:30pm 18.3 17.4 11.4 64 3.8 ENE 7 19 4 10 1013.0 1013.0 0.0
27/01:00pm 17.9 17.2 11.9 68 3.3 ENE 7 13 4 7 1013.2 1013.2 0.0
27/12:30pm 17.3 16.7 11.8 70 3.0 NNE 6 13 3 7 1013.5 1013.5 0.0
27/12:00pm 17.0 16.3 11.3 69 3.1 ENE 6 9 3 5 1013.4 1013.4 0.0
27/11:30am 16.0 15.1 11.2 73 2.6 NE 7 11 4 6 1013.8 1013.8 0.0
27/11:00am 15.4 14.9 12.0 80 1.8 NNE 6 9 3 5 1013.5 1013.5 0.0
27/10:30am 13.9 14.6 12.1 89 1.0 CALM 0 0 0 0 1013.5 1013.5 0.0
27/10:00am 12.1 12.2 11.5 96 0.3 ENE 2 4 1 2 1013.6 1013.6 0.0
27/09:30am 10.6 10.1 10.6 100 0.0 N 4 6 2 3 1013.9 1013.9 0.0
27/09:00am 9.4 8.9 9.4 100 0.0 N 2 4 1 2 1014.0 1014.0 0.0
27/08:30am 8.6 8.3 8.6 100 0.0 CALM 0 0 0 0 1013.9 1013.9 0.0
27/08:00am 7.7 7.2 7.7 100 0.0 CALM 0 4 0 2 1013.6 1013.6 0.0
27/07:30am 6.5 5.3 6.5 100 0.0 WNW 2 4 1 2 1013.4 1013.4 0.0
27/07:00am 6.4 5.2 6.4 100 0.0 N 2 2 1 1 1013.3 1013.3 0.0
27/06:30am 6.1 4.4 6.1 100 0.0 ENE 4 4 2 2 1013.4 1013.4 0.0
27/06:00am 5.7 4.7 5.7 100 0.0 CALM 0 0 0 0 1013.2 1013.2 0.0
27/05:30am 4.3 2.7 4.3 100 0.0 E 2 4 1 2 1013.4 1013.4 0.0
27/05:00am 6.4 4.8 6.4 100 0.0 NNE 4 6 2 3 1013.4 1013.4 0.0
27/04:30am 6.1 5.2 6.1 100 0.0 CALM 0 0 0 0 1013.6 1013.6 0.0
27/04:00am 5.7 4.7 5.6 99 0.0 CALM 0 0 0 0 1013.8 1013.8 0.0
27/03:30am 7.2 6.5 6.9 98 0.1 CALM 0 0 0 0 1013.9 1013.9 0.0
27/03:00am 7.6 7.0 7.2 97 0.2 CALM 0 0 0 0 1014.0 1014.0 0.0
27/02:30am 8.9 7.8 8.5 97 0.2 NE 4 7 2 4 1014.1 1014.1 0.0
27/02:00am 8.2 7.2 7.3 94 0.4 NNE 2 4 1 2 1014.6 1014.6 0.0
27/01:30am 8.7 7.0 8.3 97 0.2 N 7 11 4 6 1014.8 1014.8 0.0
27/01:00am 8.6 7.0 8.2 97 0.2 NNE 6 9 3 5 1014.9 1014.9 0.0
27/12:30am 8.1 6.5 8.0 99 0.0 NNE 6 9 3 5 1014.9 1014.9 0.0
27/12:00am 7.1 6.2 6.2 94 0.4 CALM 0 0 0 0 1015.0 1015.0 0.0
 
Date/Time
EDT
Temp
°C
App
Temp
°C
Dew
Point
°C
Rel
Hum
%
Delta-T
°C
Wind Press
QNH
hPa
Press
MSL
hPa
Rain since
9am
mm
Dir  Spd
km/h
Gust
km/h
Spd
kts
Gust
kts
26/11:30pm 8.6 6.4 7.8 95 0.4 N 9 9 5 5 1015.0 1015.0 0.0
26/11:00pm 7.9 6.1 7.3 96 0.3 N 6 9 3 5 1015.2 1015.2 0.0
26/10:30pm 8.4 6.7 7.5 94 0.4 N 6 7 3 4 1015.2 1015.2 0.0
26/10:00pm 9.4 7.7 7.7 89 0.8 N 6 7 3 4 1015.1 1015.1 0.0
26/09:30pm 10.4 9.0 8.7 89 0.8 N 6 6 3 3 1014.9 1014.9 0.0
26/09:00pm 11.8 10.8 8.8 82 1.5 E 4 6 2 3 1014.5 1014.5 0.0
26/08:30pm 12.4 10.2 7.9 74 2.2 S 9 13 5 7 1014.2 1014.2 0.0
26/08:00pm 13.2 11.5 8.5 73 2.3 S 7 9 4 5 1014.1 1014.1 0.0
26/07:30pm 15.4 13.0 8.6 64 3.5 SSW 11 15 6 8 1014.0 1014.0 0.0
26/07:00pm 16.1 13.4 9.1 63 3.6 SSW 13 17 7 9 1013.9 1013.9 0.0
26/06:30pm 16.8 13.8 7.7 55 4.6 SW 13 17 7 9 1013.9 1013.9 0.0
26/06:00pm 16.6 13.3 8.1 57 4.3 SSW 15 19 8 10 1014.0 1014.0 0.0
26/05:30pm 17.0 13.8 8.4 57 4.4 SSW 15 22 8 12 1014.0 1014.0 0.0
26/05:00pm 18.5 14.6 8.5 52 5.2 SSW 19 26 10 14 1014.0 1014.0 0.0
26/04:30pm 18.2 13.9 7.9 51 5.2 SW 20 26 11 14 1014.0 1014.0 0.0
26/04:00pm 17.7 13.3 7.4 51 5.2 SSW 20 30 11 16 1013.9 1013.9 0.0
26/03:30pm 18.6 14.5 8.6 52 5.2 SW 20 30 11 16 1014.0 1014.0 0.0
26/03:00pm 18.9 14.2 7.7 48 5.7 SW 22 32 12 17 1014.3 1014.3 0.0
26/02:30pm 18.4 13.9 8.7 53 5.0 SW 22 32 12 17 1014.4 1014.4 0.0
26/02:00pm 18.6 14.2 8.8 53 5.1 SW 22 33 12 18 1014.7 1014.7 0.0
26/01:30pm 19.7 15.6 10.1 54 5.2 SW 22 32 12 17 1014.5 1014.5 0.0
26/01:00pm 19.0 14.5 8.6 51 5.4 SW 22 30 12 16 1014.5 1014.5 0.0
26/12:30pm 18.4 13.3 7.8 50 5.4 SW 24 30 13 16 1014.5 1014.5 0.0
26/12:00pm 18.4 13.7 7.8 50 5.4 SW 22 32 12 17 1014.7 1014.7 0.0
26/11:30am 17.9 13.2 7.6 51 5.2 SW 22 32 12 17 1014.7 1014.7 0.0
26/11:00am 17.0 12.6 7.6 54 4.7 SW 20 30 11 16 1014.6 1014.6 0.0
26/10:30am 16.3 12.3 8.3 59 4.1 SW 19 24 10 13 1014.6 1014.6 0.0
26/10:00am 16.2 12.1 7.7 57 4.3 SSW 19 24 10 13 1014.2 1014.2 0.0
26/09:30am 15.8 11.2 8.3 61 3.8 SSW 22 33 12 18 1013.9 1013.9 0.0
26/09:00am 15.0 12.3 9.1 68 3.0 W 13 17 7 9 1013.6 1013.6 1.8
26/08:30am 13.5 11.4 9.7 78 1.9 NW 11 17 6 9 1013.3 1013.3 1.8
26/08:00am 13.0 10.9 9.8 81 1.6 WNW 11 15 6 8 1013.1 1013.1 1.8
26/07:30am 13.7 10.6 10.3 80 1.8 W 17 24 9 13 1012.7 1012.7 1.8
26/07:00am 14.0 10.5 8.8 71 2.6 SW 17 28 9 15 1012.3 1012.3 1.8
26/06:30am 13.0 9.3 9.4 79 1.8 W 19 24 10 13 1012.0 1012.0 1.8
26/06:00am 14.0 9.8 7.5 65 3.2 SW 19 24 10 13 1011.6 1011.6 1.8
26/05:30am 13.6 9.4 9.6 77 2.0 SSW 22 32 12 17 1011.6 1011.6 1.8
26/05:00am 14.2 10.4 7.7 65 3.2 SW 17 22 9 12 1011.2 1011.2 1.8
26/04:30am 14.3 10.1 8.3 67 3.0 SW 20 30 11 16 1011.2 1011.2 1.8
26/04:00am 13.9 9.5 7.4 65 3.2 WSW 20 26 11 14 1011.3 1011.3 1.8
26/03:30am 13.9 8.8 7.7 66 3.1 SW 24 33 13 18 1011.3 1011.3 1.8
26/03:00am 14.2 9.3 8.4 68 2.9 SW 24 37 13 20 1011.4 1011.4 1.8
26/02:30am 14.1 9.8 6.9 62 3.5 WSW 19 24 10 13 1011.5 1011.5 1.8
26/02:00am 14.1 9.4 7.9 66 3.1 SW 22 32 12 17 1011.5 1011.5 1.8
26/01:30am 13.8 9.7 6.4 61 3.5 WSW 17 24 9 13 1011.7 1011.7 1.8
26/01:00am 14.7 9.8 7.0 60 3.8 WSW 22 33 12 18 1011.7 1011.7 1.8
26/12:30am 14.7 9.9 7.3 61 3.6 SW 22 32 12 17 1011.7 1011.7 1.8
26/12:00am 14.5 10.3 8.2 66 3.2 SW 20 28 11 15 1011.7 1011.7 1.8
 
Date/Time
EDT
Temp
°C
App
Temp
°C
Dew
Point
°C
Rel
Hum
%
Delta-T
°C
Wind Press
QNH
hPa
Press
MSL
hPa
Rain since
9am
mm
Dir  Spd
km/h
Gust
km/h
Spd
kts
Gust
kts
25/11:30pm 14.1 9.7 7.2 63 3.4 WSW 20 30 11 16 1011.6 1011.6 1.8
25/11:00pm 14.7 9.4 8.6 67 3.1 SW 26 33 14 18 1011.7 1011.7 1.8
25/10:30pm 15.0 9.4 8.7 66 3.2 WSW 28 39 15 21 1011.6 1011.6 1.8
25/10:00pm 14.1 12.3 12.0 87 1.1 SW 13 20 7 11 1011.4 1011.4 1.8
25/09:30pm 14.8 10.9 10.8 77 2.1 SW 22 32 12 17 1011.2 1011.2 1.8
25/09:00pm 14.7 11.9 12.7 88 1.1 SSW 19 24 10 13 1011.0 1011.0 1.8
25/08:30pm 14.8 11.5 12.7 87 1.2 SW 22 33 12 18 1010.4 1010.4 1.8
25/08:00pm 14.4 10.7 13.8 96 0.3 SW 26 35 14 19 1010.0 1010.0 1.6
25/07:30pm 14.3 11.5 14.3 100 0.0 WSW 22 33 12 18 1009.4 1009.4 1.4
25/07:00pm 14.6 10.7 14.4 99 0.1 SW 28 35 15 19 1009.2 1009.2 0.2

Other formats

Comma delimited format used in spreadsheet applications
http://www.bom.gov.au/fwo/IDV60801/IDV60801.94886.axf

JavaScript Object Notation format (JSON) in row-major order
http://www.bom.gov.au/fwo/IDV60801/IDV60801.94886.json

Data quality

Most of these data are generated automatically and are frequently updated. Quality checks on data are not normally performed. It is possible for incorrect values to appear. Refer to information at About Latest Weather Observations and please check the disclaimer before using these data.